»·PEaware :: N503NM KBUR-KPMD

N503NM :: KBUR-KPMD

FLIGHT INFORMATION

Flight Status: Arrived
Operator: Privately registered:
United States
More flights under this callsign
Pilot: Anonymous 33704 (33704)
Aircraft: CESSNA 172 SKYHAWK
(C172)
More flights by this aircraft type
Origin: KBUR Bob Hope-Burbank
United States
Destination: KPMD Palmdale AF Plant 42
United States
More flights between these airports :: More routes between these airports
Route: PMD
File this flight plan on PilotEdge
Remarks:
Altitude:
(Current/Filed)
7,000ft
Speed:
(Current/Filed)
120kts
Departed: 13-Mar-21 08:58 PM
Arrived: 13-Mar-21 09:33 PM
Distance/Time
Traveled:
30nm/0:35
Distance/Time
To Go:
Arrived

Flight Plot

Page will automatically refresh every two minutes.

Flight plan parsing failed; only flown route is shown


Map Options




Map Legend


Flown Route
Filed Route
Departure Airport
Arrival Airport
Navaid (VOR, NDB)
Fix

Horizontal Profiles

Position Reports

Time Latitude Longitude Heading Altitude Ground
Speed
13-Mar-21 20:37 34.199611 -118.361396 0 724ft 0kts
13-Mar-21 20:38 34.199611 -118.361396 89 724ft 0kts
13-Mar-21 20:39 34.199611 -118.361396 89 724ft 0kts
13-Mar-21 20:40 34.199611 -118.361396 89 724ft 0kts
13-Mar-21 20:41 34.199611 -118.361396 89 724ft 0kts
13-Mar-21 20:42 34.199611 -118.361396 89 724ft 0kts
13-Mar-21 20:43 34.199611 -118.361396 89 724ft 0kts
13-Mar-21 20:44 34.199611 -118.361396 89 724ft 0kts
13-Mar-21 20:45 34.199611 -118.361396 89 724ft 0kts
13-Mar-21 20:46 34.199611 -118.361396 89 724ft 0kts
13-Mar-21 20:47 34.199611 -118.361396 89 724ft 0kts
13-Mar-21 20:48 34.199611 -118.361386 90 724ft 1kts
13-Mar-21 20:49 34.199539 -118.360906 105 722ft 1kts
13-Mar-21 20:51 34.199433 -118.360568 115 721ft 0kts
13-Mar-21 20:52 34.199273 -118.360265 147 720ft 5kts
13-Mar-21 20:53 34.198928 -118.362404 269 722ft 7kts
13-Mar-21 20:54 34.199096 -118.365707 270 725ft 12kts
13-Mar-21 20:55 34.198962 -118.368926 215 727ft 9kts
13-Mar-21 20:56 34.198772 -118.368998 179 727ft 0kts
13-Mar-21 20:57 34.198756 -118.368998 180 727ft 0kts
13-Mar-21 20:58 34.197831 -118.359680 94 857ft 72kts
13-Mar-21 20:59 34.187241 -118.338311 131 1600ft 79kts
13-Mar-21 21:00 34.173754 -118.320542 131 2465ft 65kts
13-Mar-21 21:01 34.160053 -118.303724 131 3065ft 80kts
13-Mar-21 21:02 34.142358 -118.282951 131 3591ft 95kts
13-Mar-21 21:03 34.122234 -118.260003 131 4001ft 111kts
13-Mar-21 21:04 34.116798 -118.228998 19 4050ft 121kts
13-Mar-21 21:05 34.148733 -118.236064 351 4553ft 114kts
13-Mar-21 21:06 34.177528 -118.244723 351 5032ft 96kts
13-Mar-21 21:07 34.190997 -118.270855 281 5659ft 106kts
13-Mar-21 21:08 34.194080 -118.305619 281 6310ft 105kts
13-Mar-21 21:09 34.197397 -118.342471 281 6834ft 113kts
13-Mar-21 21:10 34.201204 -118.383884 281 6990ft 132kts
13-Mar-21 21:11 34.205262 -118.426573 281 6991ft 127kts
13-Mar-21 21:12 34.210052 -118.468806 304 6981ft 122kts
13-Mar-21 21:13 34.233474 -118.463317 44 6988ft 100kts
13-Mar-21 21:14 34.253955 -118.440898 42 6990ft 100kts
13-Mar-21 21:15 34.274933 -118.419005 41 7022ft 99kts
13-Mar-21 21:16 34.296241 -118.397330 41 7027ft 100kts
13-Mar-21 21:16 34.314148 -118.379344 40 7030ft 101kts
13-Mar-21 21:17 34.335826 -118.357715 40 7034ft 101kts
13-Mar-21 21:19 34.361182 -118.332516 40 7039ft 101kts
13-Mar-21 21:20 34.382897 -118.310983 40 7042ft 101kts
13-Mar-21 21:20 34.401117 -118.292925 40 7040ft 101kts
13-Mar-21 21:21 34.423083 -118.271146 42 7030ft 102kts
13-Mar-21 21:23 34.451632 -118.242891 33 7021ft 131kts
13-Mar-21 21:23 34.475908 -118.218762 33 7008ft 138kts
13-Mar-21 21:24 34.505630 -118.189184 32 6999ft 137kts
13-Mar-21 21:25 34.535044 -118.159911 32 6993ft 136kts
13-Mar-21 21:26 34.560520 -118.134361 29 6980ft 98kts
13-Mar-21 21:27 34.581850 -118.111060 44 6000ft 137kts
13-Mar-21 21:28 34.605069 -118.073475 49 4383ft 128kts
13-Mar-21 21:30 34.630487 -118.040305 47 3355ft 117kts
13-Mar-21 21:30 34.646588 -118.037262 304 2955ft 77kts
13-Mar-21 21:31 34.642105 -118.053069 233 2672ft 53kts
13-Mar-21 21:32 34.634589 -118.064538 232 2494ft 16kts
13-Mar-21 21:33 34.636491 -118.065767 50 2494ft 0kts
13-Mar-21 21:34 34.636491 -118.065767 50 2494ft 0kts
13-Mar-21 21:35 34.636491 -118.065767 50 2494ft 0kts
13-Mar-21 21:36 34.636491 -118.065767 50 2494ft 0kts
13-Mar-21 21:37 34.636599 -118.065607 50 2494ft 1kts
13-Mar-21 21:38 34.636676 -118.065495 50 2494ft 0kts
13-Mar-21 21:39 34.636676 -118.065495 50 2494ft 0kts
13-Mar-21 21:40 34.636676 -118.065495 50 2494ft 0kts
13-Mar-21 21:41 34.636676 -118.065495 50 2494ft 0kts
13-Mar-21 21:42 34.636676 -118.065495 50 2494ft 0kts
13-Mar-21 21:43 34.636676 -118.065495 50 2494ft 0kts
13-Mar-21 21:44 34.636676 -118.065495 50 2494ft 0kts
13-Mar-21 21:45 34.636676 -118.065495 50 2494ft 0kts
13-Mar-21 21:46 34.636676 -118.065495 50 2494ft 0kts

Navigation Log

Ident Type
Flight plan parsing failed, navigation log unavailable